createdAt,value
2019-04-25T00:02:42.299Z,11.04
2019-04-25T00:05:12.235Z,10.96
2019-04-25T00:07:42.439Z,10.88
2019-04-25T00:10:13.922Z,10.78
2019-04-25T00:12:43.349Z,10.79
2019-04-25T00:15:13.261Z,10.78
2019-04-25T00:17:43.283Z,10.77
2019-04-25T00:20:16.032Z,10.75
2019-04-25T00:22:51.562Z,10.73
2019-04-25T00:25:31.898Z,10.63
2019-04-25T00:28:06.971Z,10.62
2019-04-25T00:30:44.412Z,10.55
2019-04-25T00:33:13.884Z,10.46
2019-04-25T00:35:44.564Z,10.49
2019-04-25T00:38:13.308Z,10.55
2019-04-25T00:40:43.530Z,10.61
2019-04-25T00:43:13.217Z,10.51
2019-04-25T00:45:43.621Z,10.43
2019-04-25T00:48:15.718Z,10.33
2019-04-25T00:50:46.257Z,10.33
2019-04-25T00:53:15.299Z,10.29
2019-04-25T00:55:44.356Z,10.24
2019-04-25T00:58:22.999Z,10.13
2019-04-25T01:01:04.406Z,10.01
2019-04-25T01:03:36.217Z,10.06
2019-04-25T01:06:04.796Z,9.93
2019-04-25T01:08:35.163Z,9.94
2019-04-25T01:11:05.300Z,9.92
2019-04-25T01:13:34.032Z,9.92
2019-04-25T01:16:04.261Z,9.81
2019-04-25T01:18:33.739Z,9.66
2019-04-25T01:21:02.358Z,9.53
2019-04-25T01:23:31.225Z,9.42
2019-04-25T01:25:59.953Z,9.37
2019-04-25T01:28:31.568Z,9.26
2019-04-25T01:31:00.752Z,9.29
2019-04-25T01:33:29.308Z,9.34
2019-04-25T01:36:18.812Z,9.35
2019-04-25T01:38:56.646Z,9.40
2019-04-25T01:41:45.344Z,9.40
2019-04-25T01:44:19.905Z,9.36
2019-04-25T01:46:54.504Z,9.43
2019-04-25T01:49:24.013Z,9.50
2019-04-25T01:51:57.184Z,9.48
2019-04-25T01:54:25.673Z,9.48
2019-04-25T01:56:57.316Z,9.41
2019-04-25T01:59:26.364Z,9.34
2019-04-25T02:01:57.250Z,9.37
2019-04-25T02:04:26.263Z,9.26
2019-04-25T02:06:55.694Z,9.08
2019-04-25T02:09:26.393Z,8.98
2019-04-25T02:12:03.368Z,8.84
2019-04-25T02:14:35.844Z,8.79
2019-04-25T02:17:06.104Z,8.66
2019-04-25T02:19:35.714Z,8.67
2019-04-25T02:22:04.853Z,8.61
2019-04-25T02:24:35.147Z,8.60
2019-04-25T02:27:04.718Z,8.59
2019-04-25T02:29:33.745Z,8.66
2019-04-25T02:32:08.859Z,8.75
2019-04-25T02:34:35.052Z,8.72
2019-04-25T02:37:09.471Z,8.68
2019-04-25T02:39:37.340Z,8.64
2019-04-25T02:42:08.630Z,8.58
2019-04-25T02:44:44.530Z,8.53
2019-04-25T02:47:21.756Z,8.49
2019-04-25T02:50:07.561Z,8.47
2019-04-25T02:52:39.824Z,8.61
2019-04-25T02:55:28.127Z,8.44
2019-04-25T02:57:45.035Z,8.44
2019-04-25T03:00:24.648Z,8.44
2019-04-25T03:02:59.090Z,8.36
2019-04-25T03:05:31.678Z,8.33
2019-04-25T03:08:01.532Z,8.36
2019-04-25T03:10:30.949Z,8.33
2019-04-25T03:13:02.032Z,8.27
2019-04-25T03:15:31.450Z,8.22
2019-04-25T03:18:00.422Z,8.16
2019-04-25T03:20:35.607Z,8.08
2019-04-25T03:23:14.231Z,8.12
2019-04-25T03:25:43.472Z,8.10
2019-04-25T03:28:13.793Z,8.10
2019-04-25T03:30:45.077Z,8.00
2019-04-25T03:33:19.378Z,8.05
2019-04-25T03:35:44.784Z,8.06
2019-04-25T03:38:17.504Z,8.10
2019-04-25T03:40:47.800Z,8.18
2019-04-25T03:43:23.303Z,8.30
2019-04-25T03:45:53.491Z,8.36
2019-04-25T03:48:25.100Z,8.39
2019-04-25T03:51:15.433Z,8.37
2019-04-25T03:53:43.845Z,8.38
2019-04-25T03:56:14.661Z,8.34
2019-04-25T03:58:44.013Z,8.34
2019-04-25T04:01:13.811Z,8.31
2019-04-25T04:03:44.327Z,8.12
2019-04-25T04:06:15.275Z,8.12
2019-04-25T04:08:44.789Z,7.97
2019-04-25T04:11:15.790Z,7.97
2019-04-25T04:13:45.786Z,8.01
2019-04-25T04:16:19.029Z,8.01
2019-04-25T04:18:51.089Z,7.99
2019-04-25T04:21:26.352Z,8.02
2019-04-25T04:24:17.909Z,8.00
2019-04-25T04:27:07.945Z,7.98
2019-04-25T04:29:37.003Z,8.73
2019-04-25T04:32:06.189Z,9.80
2019-04-25T04:34:36.034Z,10.84
2019-04-25T04:37:04.619Z,11.56
2019-04-25T04:39:33.956Z,12.24
2019-04-25T04:42:03.820Z,12.49
2019-04-25T04:44:34.341Z,12.70
2019-04-25T04:47:04.366Z,12.91
2019-04-25T04:49:34.210Z,13.05
2019-04-25T04:52:06.547Z,13.54
2019-04-25T04:54:35.440Z,13.48
2019-04-25T04:57:18.439Z,13.40
2019-04-25T04:59:37.203Z,13.67
2019-04-25T05:02:26.205Z,14.23
2019-04-25T05:05:24.400Z,13.83
2019-04-25T05:07:58.148Z,13.79
2019-04-25T05:10:28.767Z,12.83
2019-04-25T05:12:57.351Z,12.89
2019-04-25T05:15:29.746Z,12.33
2019-04-25T05:17:58.505Z,11.98
2019-04-25T05:20:27.659Z,11.76
2019-04-25T05:22:56.732Z,11.68
2019-04-25T05:25:26.822Z,11.80
2019-04-25T05:28:02.490Z,11.91
2019-04-25T05:30:37.601Z,11.82
2019-04-25T05:33:06.508Z,11.92
2019-04-25T05:35:38.200Z,11.69
2019-04-25T05:38:11.424Z,11.82
2019-04-25T05:40:53.909Z,11.84
2019-04-25T05:43:25.820Z,11.83
2019-04-25T05:45:56.708Z,12.27
2019-04-25T05:48:26.219Z,12.54
2019-04-25T05:50:54.893Z,12.68
2019-04-25T05:53:24.230Z,12.67
2019-04-25T05:55:55.419Z,12.45
2019-04-25T05:58:27.296Z,12.49
2019-04-25T06:00:56.451Z,12.56
2019-04-25T06:03:27.617Z,12.62
2019-04-25T06:06:03.250Z,12.73
2019-04-25T06:08:41.432Z,12.74
2019-04-25T06:11:17.955Z,12.86
2019-04-25T06:14:03.947Z,12.99
2019-04-25T06:16:37.357Z,13.17
2019-04-25T06:19:20.820Z,13.24
2019-04-25T06:21:51.363Z,13.37
2019-04-25T06:24:45.338Z,13.43
2019-04-25T06:27:27.131Z,13.49
2019-04-25T06:30:00.928Z,13.66
2019-04-25T06:32:29.169Z,13.79
2019-04-25T06:34:58.076Z,13.86
2019-04-25T06:37:27.067Z,13.97
2019-04-25T06:39:55.973Z,14.24
2019-04-25T06:42:27.828Z,14.45
2019-04-25T06:45:03.662Z,14.67
2019-04-25T06:47:45.218Z,14.80
2019-04-25T06:50:15.705Z,14.87
2019-04-25T06:52:47.425Z,15.03
2019-04-25T06:55:16.619Z,15.23
2019-04-25T06:57:45.178Z,15.26
2019-04-25T07:00:16.398Z,15.50
2019-04-25T07:02:49.545Z,15.75
2019-04-25T07:05:28.982Z,15.78
2019-04-25T07:07:53.390Z,15.94
2019-04-25T07:10:24.171Z,16.06
2019-04-25T07:12:54.377Z,15.85
2019-04-25T07:15:25.632Z,15.61
2019-04-25T07:17:54.660Z,15.64
2019-04-25T07:20:27.092Z,15.63
2019-04-25T07:22:56.762Z,15.55
2019-04-25T07:25:28.559Z,15.43
2019-04-25T07:28:23.935Z,15.93
2019-04-25T07:31:13.299Z,16.03
2019-04-25T07:34:04.754Z,16.57
2019-04-25T07:36:34.792Z,16.98
2019-04-25T07:39:10.393Z,17.18
2019-04-25T07:41:38.523Z,17.16
2019-04-25T07:44:08.579Z,17.29
2019-04-25T07:46:39.904Z,17.32
2019-04-25T07:49:13.367Z,17.30
2019-04-25T07:51:45.417Z,17.49
2019-04-25T07:54:17.553Z,17.72
2019-04-25T07:56:54.773Z,17.67
2019-04-25T07:59:27.498Z,17.80
2019-04-25T08:01:56.858Z,18.13
2019-04-25T08:04:27.779Z,18.09
2019-04-25T08:06:58.126Z,18.48
2019-04-25T08:09:27.372Z,18.61
2019-04-25T08:11:56.758Z,18.49
2019-04-25T08:14:47.458Z,18.57
2019-04-25T08:17:19.097Z,18.46
2019-04-25T08:19:49.210Z,18.64
2019-04-25T08:22:23.402Z,18.55
2019-04-25T08:24:51.948Z,18.54
2019-04-25T08:27:23.176Z,18.21
2019-04-25T08:29:54.252Z,18.26
2019-04-25T08:32:27.120Z,18.31
2019-04-25T08:34:56.014Z,18.33
2019-04-25T08:37:24.945Z,18.54
2019-04-25T08:39:53.989Z,18.66
2019-04-25T08:42:24.298Z,18.92
2019-04-25T08:44:54.355Z,19.24
2019-04-25T08:47:24.300Z,19.66
2019-04-25T08:50:03.694Z,20.08
2019-04-25T08:52:34.794Z,20.06
2019-04-25T08:55:10.822Z,20.15
2019-04-25T08:58:07.851Z,19.90
2019-04-25T09:01:00.766Z,19.93
2019-04-25T09:03:32.341Z,19.76
2019-04-25T09:06:03.386Z,19.64
2019-04-25T09:08:33.040Z,19.79
2019-04-25T09:11:03.509Z,19.84
2019-04-25T09:13:33.034Z,20.09
2019-04-25T09:16:03.596Z,19.99
2019-04-25T09:18:34.959Z,20.13
2019-04-25T09:21:07.506Z,19.73
2019-04-25T09:23:37.948Z,19.71
2019-04-25T09:26:06.757Z,19.87
2019-04-25T09:28:38.056Z,19.83
2019-04-25T09:31:08.421Z,20.06
2019-04-25T09:33:37.199Z,20.09
2019-04-25T09:36:06.894Z,20.52
2019-04-25T09:38:36.869Z,20.60
2019-04-25T09:41:05.894Z,20.30
2019-04-25T09:43:35.762Z,20.60
2019-04-25T09:46:09.667Z,20.77
2019-04-25T09:49:18.494Z,20.95
2019-04-25T09:51:53.593Z,20.89
2019-04-25T09:54:33.828Z,21.28
2019-04-25T09:57:28.596Z,21.05
2019-04-25T09:59:57.672Z,21.19
2019-04-25T10:02:28.145Z,21.26
2019-04-25T10:05:00.595Z,20.97
2019-04-25T10:07:29.147Z,21.28
2019-04-25T10:09:57.702Z,21.49
2019-04-25T10:12:27.936Z,21.75
2019-04-25T10:15:06.356Z,21.65
2019-04-25T10:17:35.340Z,21.92
2019-04-25T10:20:07.215Z,22.12
2019-04-25T10:22:35.788Z,21.98
2019-04-25T10:25:04.780Z,22.06
2019-04-25T10:27:33.766Z,21.75
2019-04-25T10:30:16.071Z,21.53
2019-04-25T10:32:33.545Z,21.27
2019-04-25T10:35:05.904Z,21.44
2019-04-25T10:37:35.345Z,21.22
2019-04-25T10:40:07.769Z,20.99
2019-04-25T10:42:36.338Z,21.12
2019-04-25T10:45:05.590Z,21.32
2019-04-25T10:47:35.337Z,21.53
2019-04-25T10:50:04.587Z,21.29
2019-04-25T10:52:33.797Z,21.26
2019-04-25T10:55:04.239Z,21.63
2019-04-25T10:57:33.978Z,21.63
2019-04-25T11:00:07.455Z,21.89
2019-04-25T11:02:33.962Z,21.80
2019-04-25T11:05:10.423Z,22.11
2019-04-25T11:07:39.737Z,22.28
2019-04-25T11:10:09.141Z,22.48
2019-04-25T11:12:41.507Z,22.39
2019-04-25T11:15:11.241Z,22.07
2019-04-25T11:17:39.973Z,22.15
2019-04-25T11:20:14.178Z,21.81
2019-04-25T11:22:44.752Z,21.79
2019-04-25T11:25:14.990Z,21.98
2019-04-25T11:27:46.639Z,22.25
2019-04-25T11:30:14.809Z,22.26
2019-04-25T11:32:45.105Z,22.17
2019-04-25T11:35:14.057Z,22.22
2019-04-25T11:37:43.917Z,22.29
2019-04-25T11:40:28.707Z,22.45
2019-04-25T11:42:57.617Z,22.38
2019-04-25T11:45:26.177Z,22.38
2019-04-25T11:47:56.414Z,22.68
2019-04-25T12:17:23.538Z,23.74
2019-04-25T12:19:54.598Z,23.72
2019-04-25T12:22:27.094Z,23.66
2019-04-25T12:24:55.797Z,23.75
2019-04-25T12:27:25.947Z,23.73
2019-04-25T12:29:54.890Z,23.82
2019-04-25T12:32:24.906Z,23.95
2019-04-25T12:34:56.875Z,23.95
2019-04-25T12:37:25.763Z,24.23
2019-04-25T12:39:54.325Z,24.51
2019-04-25T12:42:24.453Z,24.58
2019-04-25T12:45:08.931Z,24.73
2019-04-25T12:47:41.080Z,24.92
2019-04-25T12:50:14.326Z,25.09
2019-04-25T12:52:44.549Z,25.02
2019-04-25T12:55:14.684Z,24.82
2019-04-25T12:57:43.393Z,24.56
2019-04-25T13:00:19.055Z,24.71
2019-04-25T13:02:49.077Z,25.08
2019-04-25T13:05:17.705Z,24.86
2019-04-25T13:07:46.253Z,24.83
2019-04-25T13:10:16.169Z,24.29
2019-04-25T13:12:46.287Z,24.21
2019-04-25T13:15:18.893Z,24.53
2019-04-25T13:17:47.443Z,24.70
2019-04-25T13:20:16.242Z,24.77
2019-04-25T13:22:45.131Z,24.88
2019-04-25T13:25:18.288Z,25.05
2019-04-25T13:28:08.450Z,24.91
2019-04-25T13:31:04.063Z,25.02
2019-04-25T13:33:39.283Z,24.84
2019-04-25T13:36:10.672Z,24.69
2019-04-25T13:38:39.204Z,24.62
2019-04-25T13:41:07.779Z,24.59
2019-04-25T13:43:36.359Z,24.16
2019-04-25T13:46:05.264Z,23.88
2019-04-25T13:48:34.716Z,23.88
2019-04-25T13:51:05.759Z,23.95
2019-04-25T13:53:34.311Z,23.93
2019-04-25T13:56:04.744Z,23.70
2019-04-25T13:58:36.882Z,23.71
2019-04-25T14:01:12.795Z,23.46
2019-04-25T14:03:42.081Z,23.31
2019-04-25T14:06:10.629Z,23.27
2019-04-25T14:08:41.002Z,23.15
2019-04-25T14:11:11.517Z,23.15
2019-04-25T14:13:40.465Z,23.07
2019-04-25T14:16:26.788Z,23.38
2019-04-25T14:19:07.991Z,23.67
2019-04-25T14:21:36.540Z,23.80
2019-04-25T14:24:05.199Z,24.11
2019-04-25T14:26:33.766Z,24.12
2019-04-25T14:29:04.107Z,24.19
2019-04-25T14:31:43.247Z,24.08
2019-04-25T14:34:08.384Z,24.07
2019-04-25T14:36:36.962Z,24.00
2019-04-25T14:39:06.367Z,24.14
2019-04-25T14:41:34.923Z,24.26
2019-04-25T14:44:05.130Z,24.36
2019-04-25T14:46:35.856Z,24.56
2019-04-25T14:49:04.630Z,24.49
2019-04-25T14:51:33.361Z,24.24
2019-04-25T14:54:07.623Z,23.86
2019-04-25T14:56:45.456Z,23.96
2019-04-25T14:59:14.401Z,23.75
2019-04-25T15:01:44.792Z,23.70
2019-04-25T15:04:13.249Z,23.60
2019-04-25T15:06:41.816Z,23.58
2019-04-25T15:09:14.165Z,23.46
2019-04-25T15:11:47.194Z,23.42
2019-04-25T15:14:17.299Z,23.71
2019-04-25T15:16:47.452Z,23.88
2019-04-25T15:19:16.158Z,23.84
2019-04-25T15:21:45.070Z,23.84
2019-04-25T15:24:13.625Z,23.88
2019-04-25T15:26:45.695Z,23.78
2019-04-25T15:29:17.687Z,23.57
2019-04-25T15:31:55.758Z,23.61
2019-04-25T15:34:18.520Z,23.81
2019-04-25T15:36:58.634Z,23.84
2019-04-25T15:39:41.784Z,23.76
2019-04-25T15:42:34.048Z,23.76
2019-04-25T15:45:17.013Z,23.77
2019-04-25T15:47:45.906Z,23.78
2019-04-25T15:50:17.924Z,23.83
2019-04-25T15:52:46.845Z,23.95
2019-04-25T15:55:15.519Z,23.95
2019-04-25T15:57:44.400Z,23.92
2019-04-25T16:00:20.767Z,23.93
2019-04-25T16:02:54.011Z,24.08
2019-04-25T16:05:26.453Z,24.13
2019-04-25T16:07:55.717Z,24.18
2019-04-25T16:10:26.346Z,24.19
2019-04-25T16:12:56.520Z,24.30
2019-04-25T16:15:25.280Z,24.21
2019-04-25T16:17:53.856Z,24.26
2019-04-25T16:20:24.810Z,24.13
2019-04-25T16:22:57.949Z,24.11
2019-04-25T16:25:29.823Z,23.99
2019-04-25T16:28:00.868Z,23.90
2019-04-25T16:30:32.446Z,23.88
2019-04-25T16:33:01.500Z,23.89
2019-04-25T16:35:35.454Z,23.90
2019-04-25T16:38:06.786Z,23.85
2019-04-25T16:40:37.601Z,23.74
2019-04-25T16:43:08.951Z,23.60
2019-04-25T16:45:39.503Z,23.42
2019-04-25T16:48:08.118Z,23.24
2019-04-25T16:50:42.094Z,22.94
2019-04-25T16:53:13.835Z,22.77
2019-04-25T16:55:42.407Z,22.59
2019-04-25T16:58:11.920Z,22.44
2019-04-25T17:00:47.762Z,22.25
2019-04-25T17:03:16.869Z,22.23
2019-04-25T17:05:48.914Z,22.25
2019-04-25T17:08:17.689Z,22.22
2019-04-25T17:10:46.281Z,22.24
2019-04-25T17:13:17.946Z,22.15
2019-04-25T17:16:07.488Z,22.09
2019-04-25T17:18:43.627Z,22.13
2019-04-25T17:21:14.047Z,22.09
2019-04-25T17:23:43.484Z,21.99
2019-04-25T17:26:14.477Z,21.96
2019-04-25T17:28:45.100Z,22.01
2019-04-25T17:31:27.752Z,22.01
2019-04-25T17:34:03.636Z,22.04
2019-04-25T17:36:58.602Z,21.97
2019-04-25T17:39:33.457Z,21.86
2019-04-25T17:42:04.480Z,21.85
2019-04-25T17:44:36.996Z,21.76
2019-04-25T17:47:08.546Z,21.53
2019-04-25T17:49:37.451Z,21.49
2019-04-25T17:52:13.602Z,21.50
2019-04-25T17:54:43.079Z,21.45
2019-04-25T17:57:14.507Z,21.36
2019-04-25T17:59:43.456Z,21.36
2019-04-25T18:02:13.097Z,21.27
2019-04-25T18:04:42.561Z,21.19
2019-04-25T18:07:30.357Z,20.91
2019-04-25T18:09:59.378Z,20.59
2019-04-25T18:12:28.009Z,20.31
2019-04-25T18:15:00.126Z,20.07
2019-04-25T18:17:32.428Z,19.88
2019-04-25T18:20:11.426Z,19.73
2019-04-25T18:22:58.658Z,19.68
2019-04-25T18:25:50.751Z,19.62
2019-04-25T18:28:28.956Z,19.65
2019-04-25T18:30:58.584Z,19.67
2019-04-25T18:33:30.646Z,19.50
2019-04-25T18:36:20.365Z,19.41
2019-04-25T18:38:59.313Z,19.34
2019-04-25T18:41:45.976Z,19.27
2019-04-25T18:44:14.709Z,19.08
2019-04-25T18:46:47.594Z,18.91
2019-04-25T18:49:16.508Z,18.77
2019-04-25T18:51:56.463Z,18.79
2019-04-25T18:54:29.767Z,18.65
2019-04-25T18:57:18.217Z,18.56
2019-04-25T19:00:08.304Z,18.41
2019-04-25T19:03:01.793Z,18.43
2019-04-25T19:05:41.116Z,18.41
2019-04-25T19:08:15.478Z,18.29
2019-04-25T19:10:47.588Z,18.13
2019-04-25T19:13:20.073Z,17.90
2019-04-25T19:15:48.938Z,17.85
2019-04-25T19:18:19.101Z,17.80
2019-04-25T19:20:48.116Z,17.71
2019-04-25T19:23:20.470Z,17.64
2019-04-25T19:25:49.431Z,17.52
2019-04-25T19:28:20.806Z,17.47
2019-04-25T19:30:50.213Z,17.39
2019-04-25T19:33:34.989Z,17.40
2019-04-25T19:35:55.493Z,17.30
2019-04-25T19:38:24.407Z,17.25
2019-04-25T19:41:09.422Z,17.16
2019-04-25T19:43:51.925Z,17.06
2019-04-25T19:46:38.382Z,16.98
2019-04-25T19:49:10.820Z,17.00
2019-04-25T19:51:41.779Z,16.99
2019-04-25T19:54:10.888Z,17.02
2019-04-25T19:56:39.796Z,17.01
2019-04-25T19:59:08.739Z,17.05
2019-04-25T20:01:38.710Z,17.01
2019-04-25T20:04:22.019Z,16.88
2019-04-25T20:07:08.225Z,16.83
2019-04-25T20:10:02.607Z,16.60
2019-04-25T20:12:40.149Z,16.49
2019-04-25T20:15:12.724Z,16.46
2019-04-25T20:17:47.612Z,16.50
2019-04-25T20:20:16.614Z,16.49
2019-04-25T20:22:48.147Z,16.47
2019-04-25T20:25:18.698Z,16.47
2019-04-25T20:27:50.857Z,16.49
2019-04-25T20:30:23.681Z,16.52
2019-04-25T20:32:53.553Z,16.49
2019-04-25T20:35:22.417Z,16.46
2019-04-25T20:37:53.473Z,16.40
2019-04-25T20:40:24.210Z,16.37
2019-04-25T20:42:55.242Z,16.27
2019-04-25T20:45:24.361Z,16.22
2019-04-25T20:47:56.981Z,16.17
2019-04-25T20:50:26.010Z,16.10
2019-04-25T20:52:55.546Z,16.09
2019-04-25T20:55:27.834Z,16.01
2019-04-25T20:57:56.440Z,15.95
2019-04-25T21:00:40.006Z,15.83
2019-04-25T21:03:10.152Z,15.85
2019-04-25T21:05:41.062Z,15.86
2019-04-25T21:08:13.173Z,15.84
2019-04-25T21:10:42.038Z,15.89
2019-04-25T21:13:21.868Z,15.91
2019-04-25T21:16:23.207Z,15.79
2019-04-25T21:19:02.529Z,15.79
2019-04-25T21:21:35.653Z,15.76
2019-04-25T21:24:04.584Z,15.81
2019-04-25T21:26:35.237Z,15.74
2019-04-25T21:29:04.525Z,15.73
2019-04-25T21:31:35.113Z,15.73
2019-04-25T21:34:04.237Z,15.85
2019-04-25T21:36:33.133Z,16.31
2019-04-25T21:39:07.388Z,17.16
2019-04-25T21:41:48.295Z,17.69
2019-04-25T21:44:17.800Z,18.22
2019-04-25T21:46:48.145Z,18.39
2019-04-25T21:49:25.902Z,18.42
2019-04-25T21:51:55.465Z,18.29
2019-04-25T21:54:26.041Z,18.13
2019-04-25T21:56:57.961Z,18.00
2019-04-25T21:59:26.846Z,17.86
2019-04-25T22:01:56.364Z,17.62
2019-04-25T22:04:38.933Z,17.48
2019-04-25T22:07:06.174Z,17.24
2019-04-25T22:09:37.415Z,17.06
2019-04-25T22:12:07.909Z,16.83
2019-04-25T22:14:38.727Z,16.60
2019-04-25T22:17:10.743Z,16.53
2019-04-25T22:19:42.869Z,16.45
2019-04-25T22:22:13.916Z,16.42
2019-04-25T22:24:43.514Z,16.24
2019-04-25T22:27:18.747Z,16.21
2019-04-25T22:29:57.166Z,16.18
2019-04-25T22:32:46.223Z,16.08
2019-04-25T22:35:23.074Z,15.99
2019-04-25T22:37:52.118Z,15.96
2019-04-25T22:40:24.725Z,15.76
2019-04-25T22:42:53.477Z,15.69
2019-04-25T22:45:25.086Z,15.64
2019-04-25T22:47:54.167Z,15.63
2019-04-25T22:50:23.351Z,15.58
2019-04-25T22:52:53.980Z,15.60
2019-04-25T22:55:22.940Z,15.46
2019-04-25T22:57:55.286Z,15.40
2019-04-25T23:00:32.789Z,15.33
2019-04-25T23:03:16.103Z,15.24
2019-04-25T23:05:49.135Z,15.24
2019-04-25T23:08:21.867Z,15.20
2019-04-25T23:10:54.659Z,15.16
2019-04-25T23:13:25.935Z,15.16
2019-04-25T23:15:55.442Z,15.12
2019-04-25T23:18:27.355Z,15.12
2019-04-25T23:20:56.509Z,15.07
2019-04-25T23:23:32.368Z,15.07
2019-04-25T23:26:23.071Z,15.01
2019-04-25T23:28:55.262Z,14.97
2019-04-25T23:31:29.390Z,14.85
2019-04-25T23:34:00.389Z,14.67
2019-04-25T23:36:29.488Z,14.58
2019-04-25T23:38:59.732Z,14.49
2019-04-25T23:41:30.879Z,14.38
2019-04-25T23:44:03.291Z,14.14
2019-04-25T23:46:32.939Z,14.20
2019-04-25T23:49:04.891Z,14.15
2019-04-25T23:51:34.963Z,14.09
2019-04-25T23:54:07.642Z,13.97
2019-04-25T23:56:37.265Z,13.83
2019-04-25T23:59:07.354Z,13.69
